Time;durP1;ratioP1;P1;durP2;ratioP2;P2;SDS_P1;SDS_P2;PMS_P1;PMS_P2;Temp;Humidity;BMP_temperature;BMP_pressure;BME280_temperature;BME280_humidity;BME280_pressure;Samples;Min_cycle;Max_cycle;Signal;HPM_P1;HPM_P2
2022/04/15 00:02:07;;;;;;;13.27;8.32;;;;;;;;;;5102651;28;20046;-66
2022/04/15 00:04:32;;;;;;;9.98;6.68;;;;;;;;;;5103172;28;20088;-66
2022/04/15 00:06:58;;;;;;;10.90;6.72;;;;;;;;;;5093796;28;20430;-68
2022/04/15 00:09:24;;;;;;;12.27;7.32;;;;;;;;;;5099803;28;20137;-68
2022/04/15 00:11:49;;;;;;;11.85;6.93;;;;;;;;;;5099851;28;20040;-68
2022/04/15 00:14:14;;;;;;;10.45;6.70;;;;;;;;;;5088386;28;20147;-70
2022/04/15 00:16:43;;;;;;;17.45;9.48;;;;;;;;;;5098887;28;20055;-68
2022/04/15 00:19:09;;;;;;;20.63;12.50;;;;;;;;;;5096325;28;20008;-66
2022/04/15 00:21:35;;;;;;;26.05;12.73;;;;;;;;;;5094791;28;20330;-67
2022/04/15 00:24:00;;;;;;;23.13;13.25;;;;;;;;;;5091753;28;20055;-70
2022/04/15 00:26:25;;;;;;;20.02;9.90;;;;;;;;;;5101783;28;20423;-68
2022/04/15 00:28:52;;;;;;;17.88;8.65;;;;;;;;;;5101914;28;20027;-70
2022/04/15 00:31:17;;;;;;;12.15;6.90;;;;;;;;;;5095064;28;20418;-67
2022/04/15 00:33:43;;;;;;;14.25;8.82;;;;;;;;;;5096192;28;20059;-65
2022/04/15 00:36:08;;;;;;;38.05;13.45;;;;;;;;;;5101785;28;20027;-68
2022/04/15 00:38:34;;;;;;;22.50;10.00;;;;;;;;;;5090991;28;20033;-68
2022/04/15 00:40:59;;;;;;;20.90;11.88;;;;;;;;;;5101382;28;20054;-71
2022/04/15 00:43:24;;;;;;;18.02;11.50;;;;;;;;;;5101254;28;20027;-70
2022/04/15 00:45:50;;;;;;;17.40;11.50;;;;;;;;;;5091657;28;20111;-68
2022/04/15 00:48:16;;;;;;;20.02;11.85;;;;;;;;;;5101639;28;20079;-72
2022/04/15 00:50:42;;;;;;;18.40;11.38;;;;;;;;;;5102024;28;20108;-67
2022/04/15 00:53:08;;;;;;;22.13;12.77;;;;;;;;;;5092918;28;20016;-67
2022/04/15 00:55:34;;;;;;;25.02;13.50;;;;;;;;;;5098661;28;20034;-70
2022/04/15 00:58:00;;;;;;;19.35;10.13;;;;;;;;;;5101117;28;20039;-70
2022/04/15 01:00:28;;;;;;;31.63;13.43;;;;;;;;;;5101416;28;20096;-65
2022/04/15 01:02:56;;;;;;;28.95;13.18;;;;;;;;;;5100540;28;20028;-67
2022/04/15 01:05:21;;;;;;;29.40;15.55;;;;;;;;;;5093487;28;20362;-72
2022/04/15 01:07:52;;;;;;;32.03;14.20;;;;;;;;;;5097882;28;20027;-69
2022/04/15 01:10:18;;;;;;;47.92;16.77;;;;;;;;;;5100418;28;20067;-70
2022/04/15 01:12:45;;;;;;;40.72;15.73;;;;;;;;;;5090545;28;20034;-66
2022/04/15 01:15:13;;;;;;;29.77;15.45;;;;;;;;;;5087345;28;20019;-71
2022/04/15 01:17:38;;;;;;;33.42;16.35;;;;;;;;;;5100805;28;20036;-67
2022/04/15 01:20:05;;;;;;;21.50;12.20;;;;;;;;;;5100592;28;20028;-70
2022/04/15 01:22:40;;;;;;;27.58;12.80;;;;;;;;;;5100782;28;20019;-70
2022/04/15 01:25:06;;;;;;;30.00;13.43;;;;;;;;;;5099240;28;20042;-68
2022/04/15 01:27:35;;;;;;;25.02;13.00;;;;;;;;;;5100961;28;20081;-69
2022/04/15 01:30:01;;;;;;;27.40;12.93;;;;;;;;;;5100858;28;20031;-68
2022/04/15 01:32:26;;;;;;;27.48;11.63;;;;;;;;;;5091078;28;20264;-69
2022/04/15 01:34:52;;;;;;;28.98;14.68;;;;;;;;;;5100954;28;20023;-68
2022/04/15 01:37:19;;;;;;;23.17;11.98;;;;;;;;;;5090469;28;20019;-71
2022/04/15 01:39:45;;;;;;;22.35;10.40;;;;;;;;;;5098793;28;20422;-67
2022/04/15 01:42:11;;;;;;;19.92;10.68;;;;;;;;;;5098230;28;20110;-68
2022/04/15 01:44:38;;;;;;;31.35;14.57;;;;;;;;;;5090141;28;20051;-67
2022/04/15 01:47:04;;;;;;;44.88;16.52;;;;;;;;;;5100281;28;20049;-73
2022/04/15 01:49:29;;;;;;;27.85;12.80;;;;;;;;;;5099754;28;20047;-70
2022/04/15 01:51:54;;;;;;;30.80;13.73;;;;;;;;;;5099843;28;20027;-67
2022/04/15 01:54:20;;;;;;;41.10;17.85;;;;;;;;;;5100152;28;20445;-68
2022/04/15 01:56:45;;;;;;;36.75;18.73;;;;;;;;;;5099567;28;20115;-66
2022/04/15 01:59:10;;;;;;;52.83;21.67;;;;;;;;;;5099940;28;20078;-69
2022/04/15 02:01:37;;;;;;;61.10;22.80;;;;;;;;;;5099872;28;20431;-67
2022/04/15 02:04:02;;;;;;;47.80;20.70;;;;;;;;;;5099873;28;20107;-71
2022/04/15 02:06:28;;;;;;;44.28;19.35;;;;;;;;;;5100385;28;20108;-71
2022/04/15 02:08:53;;;;;;;31.45;15.85;;;;;;;;;;5090728;28;20043;-68
2022/04/15 02:11:19;;;;;;;129.65;65.80;;;;;;;;;;5087721;28;20031;-68
2022/04/15 02:13:44;;;;;;;86.25;44.67;;;;;;;;;;5086744;28;20023;-67
2022/04/15 02:16:10;;;;;;;48.90;26.60;;;;;;;;;;5084168;28;20106;-66
2022/04/15 02:18:36;;;;;;;22.95;13.13;;;;;;;;;;5068279;28;20336;-67
2022/04/15 02:21:01;;;;;;;16.02;8.93;;;;;;;;;;5086505;28;20026;-67
2022/04/15 02:23:26;;;;;;;20.35;12.07;;;;;;;;;;5091916;28;20042;-69
2022/04/15 02:25:52;;;;;;;31.35;17.10;;;;;;;;;;5095149;28;20042;-68
2022/04/15 02:28:17;;;;;;;44.45;22.17;;;;;;;;;;5099172;28;20046;-72
2022/04/15 02:30:42;;;;;;;52.45;29.25;;;;;;;;;;5099507;28;20019;-68
2022/04/15 02:33:08;;;;;;;68.05;37.38;;;;;;;;;;5099850;28;20044;-66
2022/04/15 02:35:33;;;;;;;51.80;26.60;;;;;;;;;;5099147;28;20058;-66
2022/04/15 02:37:59;;;;;;;45.42;24.80;;;;;;;;;;5099427;28;20020;-67
2022/04/15 02:40:24;;;;;;;44.72;24.08;;;;;;;;;;5099151;28;20032;-65
2022/04/15 02:42:49;;;;;;;53.97;29.83;;;;;;;;;;5094209;28;20059;-65
2022/04/15 02:45:15;;;;;;;41.85;22.02;;;;;;;;;;5093829;28;20028;-66
2022/04/15 02:47:41;;;;;;;39.70;21.30;;;;;;;;;;5099184;28;20153;-71
2022/04/15 02:50:06;;;;;;;37.47;19.98;;;;;;;;;;5099653;28;20047;-72
2022/04/15 02:52:32;;;;;;;99.18;46.92;;;;;;;;;;5099729;28;20023;-68
2022/04/15 02:54:58;;;;;;;77.03;36.92;;;;;;;;;;5097237;28;20307;-67
2022/04/15 02:57:23;;;;;;;39.65;21.55;;;;;;;;;;5086286;28;21122;-67
2022/04/15 02:59:48;;;;;;;26.98;14.93;;;;;;;;;;5087444;28;20441;-68
2022/04/15 03:02:15;;;;;;;44.33;22.25;;;;;;;;;;5088551;28;20089;-65
2022/04/15 03:04:40;;;;;;;36.63;19.65;;;;;;;;;;5098125;28;20108;-70
2022/04/15 03:07:05;;;;;;;31.60;16.35;;;;;;;;;;5099754;28;20024;-66
2022/04/15 03:09:31;;;;;;;19.17;11.40;;;;;;;;;;5099433;28;20030;-67
2022/04/15 03:11:56;;;;;;;21.40;11.63;;;;;;;;;;5098654;28;20028;-68
2022/04/15 03:14:21;;;;;;;50.90;25.35;;;;;;;;;;5099192;28;20085;-66
2022/04/15 03:16:47;;;;;;;64.95;30.00;;;;;;;;;;5094285;28;20020;-66
2022/04/15 03:19:12;;;;;;;32.33;15.35;;;;;;;;;;5093312;28;20574;-65
2022/04/15 03:21:37;;;;;;;22.90;12.68;;;;;;;;;;5099214;28;20032;-67
2022/04/15 03:24:03;;;;;;;18.13;9.82;;;;;;;;;;5099508;28;20031;-68
2022/04/15 03:26:28;;;;;;;17.08;10.15;;;;;;;;;;5089496;28;20020;-66
2022/04/15 03:28:54;;;;;;;30.65;17.75;;;;;;;;;;5098544;28;20039;-65
2022/04/15 03:31:19;;;;;;;252.60;106.15;;;;;;;;;;5099105;28;20115;-70
2022/04/15 03:33:45;;;;;;;223.15;89.07;;;;;;;;;;5085847;28;20051;-72
2022/04/15 03:36:10;;;;;;;190.00;79.25;;;;;;;;;;5086033;28;20047;-68
2022/04/15 03:38:36;;;;;;;182.75;82.22;;;;;;;;;;5088883;28;20027;-66
2022/04/15 03:41:01;;;;;;;132.95;61.40;;;;;;;;;;5098131;28;20903;-68
2022/04/15 03:43:26;;;;;;;51.42;25.13;;;;;;;;;;5081357;28;20019;-69
2022/04/15 03:45:52;;;;;;;38.38;18.30;;;;;;;;;;5097325;28;20119;-68
2022/04/15 03:48:17;;;;;;;29.15;15.30;;;;;;;;;;5093232;28;20400;-68
2022/04/15 03:50:42;;;;;;;28.45;15.07;;;;;;;;;;5093851;28;20396;-68
2022/04/15 03:53:07;;;;;;;21.90;12.48;;;;;;;;;;5093395;28;20434;-68
2022/04/15 03:55:33;;;;;;;28.50;14.52;;;;;;;;;;5089164;28;20070;-73
2022/04/15 03:57:58;;;;;;;31.50;15.95;;;;;;;;;;5090027;28;20130;-68
2022/04/15 04:00:24;;;;;;;21.65;12.15;;;;;;;;;;5089407;28;20440;-66
2022/04/15 04:02:51;;;;;;;18.25;11.95;;;;;;;;;;5090199;28;20070;-68
2022/04/15 04:05:16;;;;;;;25.77;13.93;;;;;;;;;;5092948;28;20035;-65
2022/04/15 04:07:42;;;;;;;29.40;17.13;;;;;;;;;;5101316;28;20035;-66
2022/04/15 04:10:08;;;;;;;23.25;14.55;;;;;;;;;;5102403;28;20312;-68
2022/04/15 04:12:34;;;;;;;24.75;14.23;;;;;;;;;;5098226;28;20430;-69
2022/04/15 04:15:00;;;;;;;28.00;16.45;;;;;;;;;;5094906;28;20063;-70
2022/04/15 04:17:25;;;;;;;35.95;20.17;;;;;;;;;;5100513;28;20176;-66
2022/04/15 04:19:50;;;;;;;32.13;20.33;;;;;;;;;;5101511;28;20481;-68
2022/04/15 04:22:16;;;;;;;53.33;31.42;;;;;;;;;;5100659;28;20517;-70
2022/04/15 04:24:41;;;;;;;32.10;17.33;;;;;;;;;;5089711;28;20019;-69
2022/04/15 04:27:06;;;;;;;20.42;12.20;;;;;;;;;;5094909;28;20025;-69
2022/04/15 04:29:32;;;;;;;91.10;51.50;;;;;;;;;;5071069;28;20027;-69
2022/04/15 04:31:57;;;;;;;56.75;31.33;;;;;;;;;;5090248;28;20032;-72
2022/04/15 04:34:24;;;;;;;40.58;22.38;;;;;;;;;;5094082;28;20024;-71
2022/04/15 04:36:49;;;;;;;29.05;15.35;;;;;;;;;;5087838;28;20047;-75
2022/04/15 04:39:14;;;;;;;20.48;12.13;;;;;;;;;;5089660;28;20057;-71
2022/04/15 04:41:40;;;;;;;19.63;11.00;;;;;;;;;;5097477;28;20031;-72
2022/04/15 04:44:06;;;;;;;25.17;13.65;;;;;;;;;;5102775;28;20020;-72
2022/04/15 04:46:31;;;;;;;17.75;10.40;;;;;;;;;;5103653;28;20024;-70
2022/04/15 04:48:57;;;;;;;28.88;14.93;;;;;;;;;;5103600;28;20038;-71
2022/04/15 04:51:22;;;;;;;30.20;15.75;;;;;;;;;;5099234;28;20106;-79
2022/04/15 04:53:47;;;;;;;29.13;14.52;;;;;;;;;;5086786;28;20059;-72
2022/04/15 04:56:15;;;;;;;27.70;15.23;;;;;;;;;;5087130;28;20027;-73
2022/04/15 04:58:40;;;;;;;26.55;13.85;;;;;;;;;;5086374;28;20430;-71
2022/04/15 05:01:05;;;;;;;26.10;14.25;;;;;;;;;;5088747;28;20020;-71
2022/04/15 05:03:31;;;;;;;41.58;27.27;;;;;;;;;;5086669;28;20031;-70
2022/04/15 05:05:56;;;;;;;44.47;27.63;;;;;;;;;;5090398;28;20412;-73
2022/04/15 05:08:21;;;;;;;42.47;24.52;;;;;;;;;;5084807;28;20450;-76
2022/04/15 05:10:47;;;;;;;84.20;41.72;;;;;;;;;;5087253;28;20016;-71
2022/04/15 05:13:12;;;;;;;88.20;52.88;;;;;;;;;;5086354;28;20034;-69
2022/04/15 05:15:37;;;;;;;60.88;38.70;;;;;;;;;;5087203;28;20354;-76
2022/04/15 05:18:03;;;;;;;51.00;37.22;;;;;;;;;;5086310;28;20426;-73
2022/04/15 05:20:29;;;;;;;48.90;30.73;;;;;;;;;;5085400;28;20437;-70
2022/04/15 05:22:54;;;;;;;59.72;32.10;;;;;;;;;;5086543;28;20035;-69
2022/04/15 05:25:20;;;;;;;89.82;45.25;;;;;;;;;;5087325;28;20315;-69
2022/04/15 05:27:45;;;;;;;77.43;42.78;;;;;;;;;;5087626;28;20023;-72
2022/04/15 05:30:10;;;;;;;64.10;37.13;;;;;;;;;;5090154;28;20016;-66
2022/04/15 05:32:36;;;;;;;41.42;24.95;;;;;;;;;;5093132;28;20040;-72
2022/04/15 05:35:01;;;;;;;31.73;17.13;;;;;;;;;;5100225;28;20024;-70
2022/04/15 05:37:26;;;;;;;22.15;13.68;;;;;;;;;;5082331;28;20034;-74
2022/04/15 05:39:52;;;;;;;25.15;15.15;;;;;;;;;;5077388;28;20020;-69
2022/04/15 05:42:17;;;;;;;26.92;16.52;;;;;;;;;;5091721;28;20063;-70
2022/04/15 05:44:42;;;;;;;20.65;13.05;;;;;;;;;;5099214;28;20027;-68
2022/04/15 05:47:08;;;;;;;11.40;7.80;;;;;;;;;;5099631;28;20035;-69
2022/04/15 05:49:34;;;;;;;16.85;9.98;;;;;;;;;;5101142;28;20038;-67
2022/04/15 05:52:02;;;;;;;15.65;11.10;;;;;;;;;;5098307;28;20150;-68
2022/04/15 05:54:28;;;;;;;20.55;11.98;;;;;;;;;;5097951;28;20080;-67
2022/04/15 05:56:53;;;;;;;45.70;31.40;;;;;;;;;;5096902;28;20035;-70
2022/04/15 05:59:21;;;;;;;42.53;29.20;;;;;;;;;;5096999;28;20062;-69
2022/04/15 06:01:51;;;;;;;48.92;33.50;;;;;;;;;;5096714;28;20028;-71
2022/04/15 06:04:17;;;;;;;45.28;30.05;;;;;;;;;;5098776;28;20020;-76
2022/04/15 06:06:42;;;;;;;50.80;34.63;;;;;;;;;;5098028;28;20046;-73
2022/04/15 06:09:08;;;;;;;46.75;31.83;;;;;;;;;;5098716;28;20042;-68
2022/04/15 06:11:33;;;;;;;32.80;20.95;;;;;;;;;;5100007;28;20038;-67
2022/04/15 06:14:00;;;;;;;46.42;26.77;;;;;;;;;;5099403;28;20023;-68
2022/04/15 06:16:31;;;;;;;80.03;53.47;;;;;;;;;;5100333;28;20031;-68
2022/04/15 06:18:57;;;;;;;54.63;35.15;;;;;;;;;;5099924;28;20023;-68
2022/04/15 06:21:22;;;;;;;27.20;17.42;;;;;;;;;;5099775;28;20040;-69
2022/04/15 06:23:47;;;;;;;17.67;12.35;;;;;;;;;;5099747;28;20031;-73
2022/04/15 06:26:13;;;;;;;17.42;12.00;;;;;;;;;;5099895;28;20024;-71
2022/04/15 06:28:38;;;;;;;16.08;10.32;;;;;;;;;;5098999;28;20030;-67
2022/04/15 06:31:03;;;;;;;15.80;10.23;;;;;;;;;;5099142;28;20024;-67
2022/04/15 06:33:29;;;;;;;17.00;9.57;;;;;;;;;;5099959;28;20024;-69
2022/04/15 06:35:54;;;;;;;15.48;9.63;;;;;;;;;;5103806;28;20031;-69
2022/04/15 06:38:19;;;;;;;12.68;8.07;;;;;;;;;;5107038;28;20020;-68
2022/04/15 06:40:45;;;;;;;10.50;7.32;;;;;;;;;;5106967;28;20423;-67
2022/04/15 06:43:10;;;;;;;12.55;8.38;;;;;;;;;;5104851;28;20399;-70
2022/04/15 06:45:35;;;;;;;13.07;8.55;;;;;;;;;;5104545;28;20042;-74
2022/04/15 06:48:01;;;;;;;11.82;8.75;;;;;;;;;;5100414;28;20024;-73
2022/04/15 06:50:26;;;;;;;11.20;8.27;;;;;;;;;;5099416;28;20020;-68
2022/04/15 06:52:52;;;;;;;9.98;7.60;;;;;;;;;;5100110;28;20091;-73
2022/04/15 06:55:17;;;;;;;7.47;6.25;;;;;;;;;;5101439;28;20088;-73
2022/04/15 06:57:42;;;;;;;8.32;6.18;;;;;;;;;;5099628;28;20036;-68
2022/04/15 07:00:08;;;;;;;7.93;5.65;;;;;;;;;;5099613;28;20059;-71
2022/04/15 07:02:35;;;;;;;10.43;6.47;;;;;;;;;;5099819;28;20032;-69
2022/04/15 07:05:01;;;;;;;9.35;5.78;;;;;;;;;;5097760;28;20307;-69
2022/04/15 07:07:26;;;;;;;7.80;4.55;;;;;;;;;;5098768;28;20027;-73
2022/04/15 07:09:52;;;;;;;11.98;6.15;;;;;;;;;;5099882;28;20023;-69
2022/04/15 07:12:18;;;;;;;9.57;5.40;;;;;;;;;;5100077;28;20027;-69
2022/04/15 07:14:43;;;;;;;8.15;5.15;;;;;;;;;;5098909;28;20031;-69
2022/04/15 07:17:09;;;;;;;9.20;4.95;;;;;;;;;;5099782;28;20102;-71
2022/04/15 07:19:34;;;;;;;13.05;8.60;;;;;;;;;;5099450;28;20369;-69
2022/04/15 07:22:00;;;;;;;7.40;6.10;;;;;;;;;;5099128;28;20040;-70
2022/04/15 07:24:27;;;;;;;6.85;4.70;;;;;;;;;;5103925;28;20032;-69
2022/04/15 07:26:52;;;;;;;6.82;4.13;;;;;;;;;;5101981;28;20031;-69
2022/04/15 07:29:20;;;;;;;6.95;3.60;;;;;;;;;;5102760;28;20027;-68
2022/04/15 07:31:45;;;;;;;5.28;3.33;;;;;;;;;;5072549;28;20361;-69
2022/04/15 07:34:10;;;;;;;4.80;3.15;;;;;;;;;;5091361;28;20039;-72
2022/04/15 07:39:02;;;;;;;5.07;2.90;;;;;;;;;;5089656;28;20030;-69
2022/04/15 07:41:27;;;;;;;4.95;3.47;;;;;;;;;;5093974;28;20028;-72
2022/04/15 07:43:53;;;;;;;4.45;3.40;;;;;;;;;;5104065;28;20027;-69
2022/04/15 07:46:18;;;;;;;4.43;3.10;;;;;;;;;;5089764;28;23108;-71
2022/04/15 07:48:43;;;;;;;5.20;3.70;;;;;;;;;;5087654;28;20106;-71
2022/04/15 07:51:09;;;;;;;8.80;4.47;;;;;;;;;;5090400;28;20132;-72
2022/04/15 07:53:34;;;;;;;6.50;3.83;;;;;;;;;;5093439;28;20102;-69
2022/04/15 07:56:00;;;;;;;12.02;3.45;;;;;;;;;;5095310;28;20331;-69
2022/04/15 07:58:25;;;;;;;6.45;3.50;;;;;;;;;;5090099;28;20056;-70
2022/04/15 08:00:50;;;;;;;9.80;4.70;;;;;;;;;;5092243;28;20091;-71
2022/04/15 08:03:20;;;;;;;11.10;4.18;;;;;;;;;;5089059;28;20135;-70
2022/04/15 08:05:45;;;;;;;5.30;3.90;;;;;;;;;;5090442;28;20391;-70
2022/04/15 08:08:11;;;;;;;5.38;3.17;;;;;;;;;;5094772;28;20055;-71
2022/04/15 08:10:36;;;;;;;4.07;2.85;;;;;;;;;;5091334;28;20057;-74
2022/04/15 08:13:02;;;;;;;5.60;3.60;;;;;;;;;;5090128;28;20102;-72
2022/04/15 08:15:27;;;;;;;5.75;3.92;;;;;;;;;;5090892;28;20106;-71
2022/04/15 08:17:53;;;;;;;4.38;3.00;;;;;;;;;;5097241;28;20133;-71
2022/04/15 08:20:18;;;;;;;5.38;3.50;;;;;;;;;;5100612;28;20106;-70
2022/04/15 08:22:44;;;;;;;10.63;3.75;;;;;;;;;;5095545;28;20442;-72
2022/04/15 08:25:09;;;;;;;7.85;3.30;;;;;;;;;;5099822;28;20032;-71
2022/04/15 08:27:34;;;;;;;4.43;2.92;;;;;;;;;;5102562;28;20051;-73
2022/04/15 08:30:00;;;;;;;3.00;2.70;;;;;;;;;;5101090;28;20028;-74
2022/04/15 08:32:32;;;;;;;6.60;3.53;;;;;;;;;;5101967;28;20055;-73
2022/04/15 08:34:58;;;;;;;5.45;3.75;;;;;;;;;;5099635;28;20426;-69
2022/04/15 08:37:23;;;;;;;5.22;3.05;;;;;;;;;;5101598;28;20024;-70
2022/04/15 08:39:49;;;;;;;3.58;2.72;;;;;;;;;;5095760;28;20035;-71
2022/04/15 08:42:14;;;;;;;4.88;3.10;;;;;;;;;;5088478;28;20108;-71
2022/04/15 08:44:40;;;;;;;3.97;2.80;;;;;;;;;;5087173;28;20376;-74
2022/04/15 08:47:07;;;;;;;4.97;3.05;;;;;;;;;;5088615;28;20024;-74
2022/04/15 08:49:34;;;;;;;5.70;3.03;;;;;;;;;;5089069;28;20068;-73
2022/04/15 08:52:00;;;;;;;4.43;3.08;;;;;;;;;;5088912;28;20036;-71
2022/04/15 08:54:25;;;;;;;5.60;2.88;;;;;;;;;;5090453;28;20029;-73
2022/04/15 08:56:51;;;;;;;7.55;3.17;;;;;;;;;;5090519;28;20397;-72
2022/04/15 08:59:16;;;;;;;4.10;3.03;;;;;;;;;;5087618;28;20093;-73
2022/04/15 09:01:43;;;;;;;4.43;3.00;;;;;;;;;;5089575;28;20133;-72
2022/04/15 09:04:08;;;;;;;5.55;2.90;;;;;;;;;;5088026;28;20511;-73
2022/04/15 09:06:34;;;;;;;6.25;4.30;;;;;;;;;;5090137;28;20130;-72
2022/04/15 09:08:59;;;;;;;5.22;3.50;;;;;;;;;;5086001;28;20037;-72
2022/04/15 09:11:37;;;;;;;5.93;3.17;;;;;;;;;;5089131;28;20107;-75
2022/04/15 09:14:06;;;;;;;4.35;3.13;;;;;;;;;;5087986;28;20050;-73
2022/04/15 09:16:36;;;;;;;6.00;4.30;;;;;;;;;;5069033;28;20039;-75
2022/04/15 09:19:02;;;;;;;8.63;6.47;;;;;;;;;;5088672;28;20438;-72
2022/04/15 09:21:28;;;;;;;4.35;3.55;;;;;;;;;;5087609;28;20027;-72
2022/04/15 09:23:54;;;;;;;6.57;5.25;;;;;;;;;;5090578;28;20835;-75
2022/04/15 09:26:20;;;;;;;9.93;3.80;;;;;;;;;;5093475;28;20047;-70
2022/04/15 09:28:48;;;;;;;4.95;4.45;;;;;;;;;;5091105;28;20126;-73
2022/04/15 09:31:14;;;;;;;6.15;4.85;;;;;;;;;;5102583;28;20030;-73
2022/04/15 09:33:58;;;;;;;6.70;3.22;;;;;;;;;;5100967;28;20028;-74
2022/04/15 09:36:24;;;;;;;5.57;3.35;;;;;;;;;;5102421;28;20027;-73
2022/04/15 09:38:50;;;;;;;14.20;11.93;;;;;;;;;;5101793;28;20447;-73
2022/04/15 09:41:23;;;;;;;6.10;4.22;;;;;;;;;;5101235;28;20030;-72
2022/04/15 09:43:52;;;;;;;5.40;3.35;;;;;;;;;;5100852;28;20446;-70
2022/04/15 09:46:18;;;;;;;6.55;3.33;;;;;;;;;;5099144;28;20039;-73
2022/04/15 09:49:06;;;;;;;5.32;3.95;;;;;;;;;;5097392;28;20335;-72
2022/04/15 09:51:39;;;;;;;4.00;3.20;;;;;;;;;;5099057;28;20028;-73
2022/04/15 09:54:05;;;;;;;8.52;3.72;;;;;;;;;;5099621;28;20044;-73
2022/04/15 09:56:31;;;;;;;6.88;3.20;;;;;;;;;;5098869;28;20141;-69
2022/04/15 09:59:00;;;;;;;6.85;3.15;;;;;;;;;;5098113;28;20429;-70
2022/04/15 10:01:26;;;;;;;6.67;3.23;;;;;;;;;;5100364;28;20499;-72
2022/04/15 10:03:54;;;;;;;5.05;3.17;;;;;;;;;;5099486;28;20030;-71
2022/04/15 10:06:19;;;;;;;4.20;3.30;;;;;;;;;;5100050;28;20118;-71
2022/04/15 10:08:45;;;;;;;4.88;2.80;;;;;;;;;;5101221;28;20624;-72
2022/04/15 10:11:11;;;;;;;5.20;2.88;;;;;;;;;;5099983;28;20031;-72
2022/04/15 10:13:37;;;;;;;6.15;3.33;;;;;;;;;;5099154;28;20098;-70
2022/04/15 10:16:03;;;;;;;5.65;2.88;;;;;;;;;;5099450;28;20445;-71
2022/04/15 10:18:28;;;;;;;6.05;3.33;;;;;;;;;;5091112;28;20377;-70
2022/04/15 10:20:54;;;;;;;3.80;2.40;;;;;;;;;;5086761;28;20070;-72
2022/04/15 10:23:21;;;;;;;4.43;2.90;;;;;;;;;;5094548;28;20032;-73
2022/04/15 10:25:46;;;;;;;3.58;2.70;;;;;;;;;;5098114;28;20046;-71
2022/04/15 10:28:37;;;;;;;6.95;2.97;;;;;;;;;;5098873;28;20440;-70
2022/04/15 10:31:08;;;;;;;4.22;2.50;;;;;;;;;;5086295;28;20023;-75
2022/04/15 10:33:34;;;;;;;3.75;2.63;;;;;;;;;;5082312;28;20053;-75
2022/04/15 10:36:09;;;;;;;2.65;2.17;;;;;;;;;;5066530;28;20015;-71
2022/04/15 10:38:34;;;;;;;6.03;2.80;;;;;;;;;;5089727;28;20030;-71
2022/04/15 10:41:11;;;;;;;4.65;2.40;;;;;;;;;;5086645;28;20024;-71
2022/04/15 10:43:36;;;;;;;3.20;2.00;;;;;;;;;;5085716;28;20031;-73
2022/04/15 10:46:11;;;;;;;6.78;2.58;;;;;;;;;;5088420;28;20019;-72
2022/04/15 10:48:38;;;;;;;7.05;3.42;;;;;;;;;;5091921;28;20055;-71
2022/04/15 10:51:24;;;;;;;4.13;2.00;;;;;;;;;;5086517;28;20454;-72
2022/04/15 10:53:49;;;;;;;4.80;3.05;;;;;;;;;;5085992;28;20438;-73
2022/04/15 10:56:15;;;;;;;3.80;1.67;;;;;;;;;;5083979;28;20033;-72
2022/04/15 11:01:32;;;;;;;3.85;2.17;;;;;;;;;;5089902;28;20459;-71
2022/04/15 11:04:02;;;;;;;42.15;18.42;;;;;;;;;;5090873;28;20020;-73
2022/04/15 11:06:28;;;;;;;40.00;15.95;;;;;;;;;;5091668;28;20068;-72
2022/04/15 11:08:54;;;;;;;25.20;10.57;;;;;;;;;;5090728;28;20032;-75
2022/04/15 11:11:33;;;;;;;12.05;6.30;;;;;;;;;;5071346;28;20350;-76
2022/04/15 11:14:00;;;;;;;10.38;5.22;;;;;;;;;;5090705;28;20062;-74
2022/04/15 11:16:47;;;;;;;21.60;10.75;;;;;;;;;;5089643;28;20019;-76
2022/04/15 11:19:15;;;;;;;3.17;2.20;;;;;;;;;;5075722;28;20125;-75
2022/04/15 11:21:41;;;;;;;8.15;5.15;;;;;;;;;;5094719;28;20088;-74
2022/04/15 11:24:10;;;;;;;11.27;6.68;;;;;;;;;;5090013;28;20044;-71
2022/04/15 11:26:36;;;;;;;10.98;7.68;;;;;;;;;;5089929;28;20088;-72
2022/04/15 11:29:03;;;;;;;3.80;3.10;;;;;;;;;;5094129;28;20115;-74
2022/04/15 11:31:29;;;;;;;3.67;2.55;;;;;;;;;;5103036;28;20036;-71
2022/04/15 11:33:55;;;;;;;8.02;5.63;;;;;;;;;;5102130;28;20088;-72
2022/04/15 11:36:21;;;;;;;9.13;5.22;;;;;;;;;;5096534;28;20027;-75
2022/04/15 11:38:47;;;;;;;4.28;3.70;;;;;;;;;;5096688;28;20019;-76
2022/04/15 11:41:19;;;;;;;3.83;2.70;;;;;;;;;;5093594;28;20408;-72
2022/04/15 11:43:54;;;;;;;6.10;3.67;;;;;;;;;;5103489;28;20325;-75
2022/04/15 11:46:19;;;;;;;3.88;2.47;;;;;;;;;;5102340;28;21234;-77
2022/04/15 11:48:45;;;;;;;2.70;2.35;;;;;;;;;;5086570;28;20123;-73
2022/04/15 11:51:10;;;;;;;9.88;4.10;;;;;;;;;;5104900;28;20031;-75
2022/04/15 11:53:35;;;;;;;7.57;2.65;;;;;;;;;;5094815;28;20108;-75
2022/04/15 11:56:02;;;;;;;2.97;2.42;;;;;;;;;;5101388;28;20029;-80
2022/04/15 11:58:35;;;;;;;5.25;2.90;;;;;;;;;;5103955;28;20042;-75
2022/04/15 12:01:01;;;;;;;10.70;5.28;;;;;;;;;;5094450;28;20536;-72
2022/04/15 12:03:27;;;;;;;7.97;5.28;;;;;;;;;;5091029;28;20027;-72
2022/04/15 12:05:53;;;;;;;6.80;4.00;;;;;;;;;;5094752;28;20027;-77
2022/04/15 12:08:19;;;;;;;6.78;4.28;;;;;;;;;;5103554;28;20028;-71
2022/04/15 12:10:46;;;;;;;13.15;6.55;;;;;;;;;;5098622;28;20112;-74
2022/04/15 12:13:12;;;;;;;6.30;3.20;;;;;;;;;;5098799;28;20031;-74
2022/04/15 12:15:37;;;;;;;4.90;2.50;;;;;;;;;;5104493;28;20024;-73
2022/04/15 12:18:03;;;;;;;4.78;2.40;;;;;;;;;;5105378;28;20047;-75
2022/04/15 12:20:29;;;;;;;9.93;5.88;;;;;;;;;;5103647;28;20024;-74
2022/04/15 12:22:58;;;;;;;3.70;3.00;;;;;;;;;;5102537;28;20039;-75
2022/04/15 12:25:23;;;;;;;5.63;3.20;;;;;;;;;;5102511;28;20043;-77
2022/04/15 12:27:49;;;;;;;4.60;2.95;;;;;;;;;;5103354;28;20111;-76
2022/04/15 12:30:33;;;;;;;4.57;2.90;;;;;;;;;;5104191;28;20024;-74
2022/04/15 12:33:06;;;;;;;9.35;6.25;;;;;;;;;;5080724;28;20027;-75
2022/04/15 12:35:32;;;;;;;6.90;4.72;;;;;;;;;;5092339;28;20468;-73
2022/04/15 12:37:59;;;;;;;5.35;3.70;;;;;;;;;;5091527;28;20027;-74
2022/04/15 12:40:26;;;;;;;7.40;3.05;;;;;;;;;;5099013;28;20058;-75
2022/04/15 12:42:53;;;;;;;5.18;3.05;;;;;;;;;;5102583;28;20119;-73
2022/04/15 12:45:22;;;;;;;6.25;3.90;;;;;;;;;;5097680;28;20153;-74
2022/04/15 12:47:57;;;;;;;9.52;7.35;;;;;;;;;;5095426;28;20027;-74
2022/04/15 12:50:25;;;;;;;3.90;3.13;;;;;;;;;;5102856;28;20338;-76
2022/04/15 12:52:51;;;;;;;8.98;4.45;;;;;;;;;;5100646;28;20028;-73
2022/04/15 12:55:43;;;;;;;7.30;5.57;;;;;;;;;;5101708;28;20042;-71
2022/04/15 12:58:17;;;;;;;5.32;4.75;;;;;;;;;;5092468;28;20036;-72
2022/04/15 13:00:42;;;;;;;4.85;3.95;;;;;;;;;;5087998;28;20138;-71
2022/04/15 13:03:08;;;;;;;5.40;4.55;;;;;;;;;;5070754;28;20100;-70
2022/04/15 13:05:33;;;;;;;4.90;3.00;;;;;;;;;;5086919;28;20015;-72
2022/04/15 13:07:58;;;;;;;6.47;3.53;;;;;;;;;;5087041;28;20076;-74
2022/04/15 13:10:27;;;;;;;6.05;3.28;;;;;;;;;;5087552;28;20787;-73
2022/04/15 13:12:52;;;;;;;4.95;3.45;;;;;;;;;;5088111;28;20039;-72
2022/04/15 13:15:17;;;;;;;4.53;3.38;;;;;;;;;;5095527;28;20443;-73
2022/04/15 13:17:43;;;;;;;4.20;3.22;;;;;;;;;;5089107;28;20365;-77
2022/04/15 13:20:11;;;;;;;3.85;2.65;;;;;;;;;;5095054;28;20031;-74
2022/04/15 13:22:37;;;;;;;;;;;;;;;;;;5094660;28;20446;-78
2022/04/15 13:25:02;;;;;;;6.87;4.57;;;;;;;;;;5099707;28;19915;-74
2022/04/15 13:27:27;;;;;;;4.05;3.47;;;;;;;;;;5088032;28;20055;-76
2022/04/15 13:29:54;;;;;;;5.15;3.90;;;;;;;;;;5086428;28;20023;-75
2022/04/15 13:32:20;;;;;;;5.47;3.40;;;;;;;;;;5087412;28;20023;-73
2022/04/15 13:34:45;;;;;;;4.82;3.72;;;;;;;;;;5090542;28;20019;-71
2022/04/15 13:37:10;;;;;;;6.03;4.40;;;;;;;;;;5077574;28;20358;-70
2022/04/15 13:39:36;;;;;;;7.00;4.25;;;;;;;;;;5088880;28;20341;-74
2022/04/15 13:42:02;;;;;;;3.63;2.33;;;;;;;;;;5095485;28;20111;-74
2022/04/15 13:44:28;;;;;;;4.97;2.78;;;;;;;;;;5097563;28;20035;-71
2022/04/15 13:46:54;;;;;;;2.63;2.17;;;;;;;;;;5101234;28;20453;-70
2022/04/15 13:49:19;;;;;;;5.45;2.25;;;;;;;;;;5101449;28;20138;-72
2022/04/15 13:51:45;;;;;;;3.92;2.70;;;;;;;;;;5099155;28;20346;-72
2022/04/15 13:56:54;;;;;;;8.13;3.78;;;;;;;;;;5091980;28;20172;-72
2022/04/15 13:59:20;;;;;;;3.40;2.50;;;;;;;;;;5087940;28;21313;-73
2022/04/15 14:01:46;;;;;;;5.13;2.95;;;;;;;;;;5093132;28;20036;-72
2022/04/15 14:04:12;;;;;;;3.20;2.42;;;;;;;;;;5091408;28;20465;-71
2022/04/15 14:06:38;;;;;;;3.83;2.35;;;;;;;;;;5091772;28;20024;-71
2022/04/15 14:09:07;;;;;;;3.60;2.17;;;;;;;;;;5095115;28;20031;-74
2022/04/15 14:11:34;;;;;;;3.85;2.58;;;;;;;;;;5102208;28;20446;-72
2022/04/15 14:14:03;;;;;;;6.13;3.17;;;;;;;;;;5102195;28;20028;-74
2022/04/15 14:16:28;;;;;;;6.32;2.85;;;;;;;;;;5101910;28;20035;-76
2022/04/15 14:18:55;;;;;;;2.65;2.42;;;;;;;;;;5100283;28;20032;-77
2022/04/15 14:21:20;;;;;;;4.07;2.67;;;;;;;;;;5099418;28;20339;-76
2022/04/15 14:23:45;;;;;;;3.33;2.50;;;;;;;;;;5087314;28;20032;-75
2022/04/15 14:26:11;;;;;;;3.22;2.33;;;;;;;;;;5088601;28;20127;-75
2022/04/15 14:28:37;;;;;;;7.03;2.97;;;;;;;;;;5086914;28;20114;-74
2022/04/15 14:31:03;;;;;;;2.95;1.92;;;;;;;;;;5071208;28;20055;-74
2022/04/15 14:33:31;;;;;;;2.85;2.25;;;;;;;;;;5086366;28;20062;-74
2022/04/15 14:35:56;;;;;;;2.20;1.98;;;;;;;;;;5089451;28;20057;-74